Terminal Aerodrome Forecast
Issued by NWS

Home | Current Version | Previous Version | Text Only | Print | Product List | Glossary On
Versions: 1 2 3 4 5 6 7 8 9 10 11 12
209
FTAK31 PAJN 202336
TAFAPG
TAF
PAPG 202336Z 2100/2124 VRB04KT P6SM -RA SCT035 OVC050
     FM210600 11006KT 6SM -RA BR OVC030
     FM211500 12008KT 5SM -RA BR SCT015 OVC025 WS020/15035KT
      AMD LTD TO CLD VIS AND WIND 2106/2115=

USA.gov is the U.S. government's official web portal to all federal, state and local government web resources and services.